Etusivu
METAR-TAF:

METAR-TAF

Lentoasemat :

Tri-Cities Airport

Pasco, Washington, Yhdysvallat

Leveyspiiri: 46-16-11N, Pituuspiiri: 119-07-00W, korkeus merenpinnasta: 124 m

Tämänhetkinen sää

Tämä raportti tehtiin 1 tunti ja 5 minuuttia sitten, kello 02.53 UTC
tyyntä
Lämpötila 14°C
Kosteus 63%
Ilmanpaine 1030 hPa
Näkyvyys: 16.1 km
selkeää

METAR: KPSC 280253Z 00000KT 10SM CLR 14/07 A3041 RMK AO2 SLP297 T01440067 53004

Aika: 20:58 (03:58 UTC)

Sääennuste

Tämä raportti tehtiin 4 tuntia ja 38 minuuttia sitten, kello 23.20 UTC
Ennuste voimassa 28. päivästä klo 00 UTC - 28. päivään klo 24 UTC
Tuuli 4 kn pohjoisesta
Näkyvyys: 10 km
selkeää

TAF: KPSC 272320Z 2800/2824 35004KT P6SM SKC

Säähavainnot ja -ennusteet yli 4000 lentoasemalta (METAR- ja TAF-raportit).

Käytössä olevat sääasemat on merkitty karttaan keltaisilla ja punaisilla pisteillä.

Aseta hiiri pisteen päälle nähdäksesi sääaseman nimen.

Klikkaa sitten nähdäksesi säähavainnot ja -ennusteet.

Kartan vaihtaminen: klikkaa mustalla rastilla varustettuja vihreitä pisteitä, niin voit zoomata sisään; viivalla varustettua vihreää pistettä, niin voit zoomata ulos tai vihreitä nuolia, niin pääset viereisille kartoille.


METAR-TAF: